aviador You're here:

KIFA Decoded Metar

in _UNIDENTIFIED
Report Time2017-11-23 03:15:00
UTC Time2017-11-23 03:27:37
Flight Rules vfr VFR
Wind190° at 11 kt
W.Decomp.*RWY 13: 5.7 kt HW 9.4 kt RCW
W.Rank190° ranks 12
Current wind is above 190° avg. (9.6)
Visibility9999 m
Phenomena:N/A
Clouds:Overcast 090 Hf
Expected CloudBase > 3,200 ft AGL from Temp-Dew spread
Ceiling9,000 ft
Temp01°C (ISA -12)
Dew Point-7°C (56% RH)
AAT-5.7°C
QNH1018 hPa
Density Alt-404 ft
Elevation1,138 ft
Report Wrong Elevation
Raw Report
METAR KIFA 230315Z AUTO 19011KT 10SM OVC090 01/M07 A3006 RMK AO2 T00071075=

Extra information for KIFA:More info

Metar Taf Metar & Taf Last 4 Metars F.Rules Stats Wind Profile Meteogram Temp Stats Metar ALERT Operation Metar Decoded Social comments